sensor_id;sensor_type;location;lat;lon;timestamp;P1;durP1;ratioP1;P2;durP2;ratioP2
54883;SDS011;40776;52.880;6.016;2023-04-25T00:02:12;20.30;;;3.28;;
54883;SDS011;40776;52.880;6.016;2023-04-25T00:04:39;20.42;;;3.50;;
54883;SDS011;40776;52.880;6.016;2023-04-25T00:07:05;10.10;;;3.15;;
54883;SDS011;40776;52.880;6.016;2023-04-25T00:09:31;13.93;;;2.67;;
54883;SDS011;40776;52.880;6.016;2023-04-25T00:11:58;16.13;;;3.40;;
54883;SDS011;40776;52.880;6.016;2023-04-25T00:14:24;16.10;;;2.97;;
54883;SDS011;40776;52.880;6.016;2023-04-25T00:16:50;13.85;;;2.88;;
54883;SDS011;40776;52.880;6.016;2023-04-25T00:19:16;15.32;;;3.42;;
54883;SDS011;40776;52.880;6.016;2023-04-25T00:21:42;11.82;;;2.83;;
54883;SDS011;40776;52.880;6.016;2023-04-25T00:24:11;12.20;;;2.80;;
54883;SDS011;40776;52.880;6.016;2023-04-25T00:26:37;13.02;;;2.83;;
54883;SDS011;40776;52.880;6.016;2023-04-25T00:29:03;11.13;;;3.17;;
54883;SDS011;40776;52.880;6.016;2023-04-25T00:31:29;23.63;;;3.53;;
54883;SDS011;40776;52.880;6.016;2023-04-25T00:33:55;13.63;;;2.70;;
54883;SDS011;40776;52.880;6.016;2023-04-25T00:36:21;14.65;;;3.00;;
54883;SDS011;40776;52.880;6.016;2023-04-25T00:38:48;16.65;;;2.85;;
54883;SDS011;40776;52.880;6.016;2023-04-25T00:41:14;16.30;;;3.00;;
54883;SDS011;40776;52.880;6.016;2023-04-25T00:43:40;17.42;;;3.35;;
54883;SDS011;40776;52.880;6.016;2023-04-25T00:46:07;15.10;;;2.80;;
54883;SDS011;40776;52.880;6.016;2023-04-25T00:48:33;18.50;;;3.85;;
54883;SDS011;40776;52.880;6.016;2023-04-25T00:50:59;12.65;;;2.95;;
54883;SDS011;40776;52.880;6.016;2023-04-25T00:53:26;20.25;;;3.90;;
54883;SDS011;40776;52.880;6.016;2023-04-25T00:55:52;16.30;;;3.22;;
54883;SDS011;40776;52.880;6.016;2023-04-25T00:58:19;12.60;;;2.97;;
54883;SDS011;40776;52.880;6.016;2023-04-25T01:00:46;16.48;;;3.40;;
54883;SDS011;40776;52.880;6.016;2023-04-25T01:03:15;16.15;;;3.17;;
54883;SDS011;40776;52.880;6.016;2023-04-25T01:05:42;18.47;;;3.33;;
54883;SDS011;40776;52.880;6.016;2023-04-25T01:08:09;14.50;;;4.15;;
54883;SDS011;40776;52.880;6.016;2023-04-25T01:10:35;18.67;;;3.67;;
54883;SDS011;40776;52.880;6.016;2023-04-25T01:13:02;17.25;;;3.85;;
54883;SDS011;40776;52.880;6.016;2023-04-25T01:15:28;22.40;;;4.50;;
54883;SDS011;40776;52.880;6.016;2023-04-25T01:17:54;28.55;;;3.80;;
54883;SDS011;40776;52.880;6.016;2023-04-25T01:20:23;16.83;;;3.10;;
54883;SDS011;40776;52.880;6.016;2023-04-25T01:22:53;14.70;;;2.90;;
54883;SDS011;40776;52.880;6.016;2023-04-25T01:25:20;20.85;;;4.22;;
54883;SDS011;40776;52.880;6.016;2023-04-25T01:27:46;11.45;;;3.38;;
54883;SDS011;40776;52.880;6.016;2023-04-25T01:30:12;13.00;;;3.40;;
54883;SDS011;40776;52.880;6.016;2023-04-25T01:32:38;13.27;;;2.42;;
54883;SDS011;40776;52.880;6.016;2023-04-25T01:35:06;14.27;;;2.80;;
54883;SDS011;40776;52.880;6.016;2023-04-25T01:37:38;12.48;;;2.35;;
54883;SDS011;40776;52.880;6.016;2023-04-25T01:40:04;17.48;;;2.95;;
54883;SDS011;40776;52.880;6.016;2023-04-25T01:42:31;14.20;;;2.65;;
54883;SDS011;40776;52.880;6.016;2023-04-25T01:44:57;13.82;;;2.65;;
54883;SDS011;40776;52.880;6.016;2023-04-25T01:47:23;11.27;;;1.52;;
54883;SDS011;40776;52.880;6.016;2023-04-25T01:49:50;13.73;;;2.17;;
54883;SDS011;40776;52.880;6.016;2023-04-25T01:52:16;8.70;;;2.28;;
54883;SDS011;40776;52.880;6.016;2023-04-25T01:54:42;8.98;;;2.05;;
54883;SDS011;40776;52.880;6.016;2023-04-25T01:57:13;8.80;;;1.52;;
54883;SDS011;40776;52.880;6.016;2023-04-25T01:59:39;9.82;;;2.00;;
54883;SDS011;40776;52.880;6.016;2023-04-25T02:02:05;13.07;;;2.28;;
54883;SDS011;40776;52.880;6.016;2023-04-25T02:04:31;11.63;;;2.00;;
54883;SDS011;40776;52.880;6.016;2023-04-25T02:06:58;15.80;;;2.42;;
54883;SDS011;40776;52.880;6.016;2023-04-25T02:09:24;12.23;;;2.95;;
54883;SDS011;40776;52.880;6.016;2023-04-25T02:11:50;11.98;;;2.00;;
54883;SDS011;40776;52.880;6.016;2023-04-25T02:14:16;11.18;;;2.65;;
54883;SDS011;40776;52.880;6.016;2023-04-25T02:16:42;10.63;;;2.95;;
54883;SDS011;40776;52.880;6.016;2023-04-25T02:19:09;15.25;;;3.38;;
54883;SDS011;40776;52.880;6.016;2023-04-25T02:21:35;16.50;;;3.33;;
54883;SDS011;40776;52.880;6.016;2023-04-25T02:24:02;28.48;;;4.60;;
54883;SDS011;40776;52.880;6.016;2023-04-25T02:26:28;13.52;;;2.38;;
54883;SDS011;40776;52.880;6.016;2023-04-25T02:28:55;11.75;;;3.83;;
54883;SDS011;40776;52.880;6.016;2023-04-25T02:31:21;16.95;;;2.22;;
54883;SDS011;40776;52.880;6.016;2023-04-25T02:33:48;7.25;;;1.95;;
54883;SDS011;40776;52.880;6.016;2023-04-25T02:36:14;12.98;;;2.08;;
54883;SDS011;40776;52.880;6.016;2023-04-25T02:38:41;6.03;;;1.60;;
54883;SDS011;40776;52.880;6.016;2023-04-25T02:41:07;9.70;;;1.40;;
54883;SDS011;40776;52.880;6.016;2023-04-25T02:43:33;9.88;;;1.42;;
54883;SDS011;40776;52.880;6.016;2023-04-25T02:45:59;9.15;;;1.90;;
54883;SDS011;40776;52.880;6.016;2023-04-25T02:48:25;6.45;;;1.98;;
54883;SDS011;40776;52.880;6.016;2023-04-25T02:50:51;7.75;;;2.03;;
54883;SDS011;40776;52.880;6.016;2023-04-25T02:53:17;8.25;;;1.75;;
54883;SDS011;40776;52.880;6.016;2023-04-25T02:55:43;6.15;;;1.88;;
54883;SDS011;40776;52.880;6.016;2023-04-25T02:58:09;6.88;;;1.50;;
54883;SDS011;40776;52.880;6.016;2023-04-25T03:00:36;7.20;;;1.52;;
54883;SDS011;40776;52.880;6.016;2023-04-25T03:03:02;8.10;;;2.10;;
54883;SDS011;40776;52.880;6.016;2023-04-25T03:05:28;8.48;;;1.70;;
54883;SDS011;40776;52.880;6.016;2023-04-25T03:07:54;5.97;;;1.40;;
54883;SDS011;40776;52.880;6.016;2023-04-25T03:10:19;8.07;;;2.05;;
54883;SDS011;40776;52.880;6.016;2023-04-25T03:12:45;5.60;;;1.58;;
54883;SDS011;40776;52.880;6.016;2023-04-25T03:15:11;6.68;;;1.58;;
54883;SDS011;40776;52.880;6.016;2023-04-25T03:17:37;4.72;;;1.20;;
54883;SDS011;40776;52.880;6.016;2023-04-25T03:20:04;9.98;;;1.20;;
54883;SDS011;40776;52.880;6.016;2023-04-25T03:22:30;11.57;;;2.08;;
54883;SDS011;40776;52.880;6.016;2023-04-25T03:24:56;6.00;;;1.52;;
54883;SDS011;40776;52.880;6.016;2023-04-25T03:27:22;9.85;;;1.80;;
54883;SDS011;40776;52.880;6.016;2023-04-25T03:29:48;7.18;;;1.67;;
54883;SDS011;40776;52.880;6.016;2023-04-25T03:32:14;13.07;;;2.17;;
54883;SDS011;40776;52.880;6.016;2023-04-25T03:34:40;13.13;;;1.75;;
54883;SDS011;40776;52.880;6.016;2023-04-25T03:37:06;12.02;;;2.28;;
54883;SDS011;40776;52.880;6.016;2023-04-25T03:39:32;9.38;;;1.73;;
54883;SDS011;40776;52.880;6.016;2023-04-25T03:41:58;14.18;;;1.90;;
54883;SDS011;40776;52.880;6.016;2023-04-25T03:44:24;7.13;;;2.58;;
54883;SDS011;40776;52.880;6.016;2023-04-25T03:46:50;12.57;;;1.90;;
54883;SDS011;40776;52.880;6.016;2023-04-25T03:49:16;5.07;;;1.63;;
54883;SDS011;40776;52.880;6.016;2023-04-25T03:51:42;8.50;;;2.05;;
54883;SDS011;40776;52.880;6.016;2023-04-25T03:54:08;13.88;;;1.80;;
54883;SDS011;40776;52.880;6.016;2023-04-25T03:56:34;11.27;;;2.95;;
54883;SDS011;40776;52.880;6.016;2023-04-25T03:59:00;9.50;;;1.98;;
54883;SDS011;40776;52.880;6.016;2023-04-25T04:01:26;10.77;;;2.45;;
54883;SDS011;40776;52.880;6.016;2023-04-25T04:03:52;15.32;;;1.90;;
54883;SDS011;40776;52.880;6.016;2023-04-25T04:06:18;11.43;;;2.15;;
54883;SDS011;40776;52.880;6.016;2023-04-25T04:08:45;8.88;;;1.67;;
54883;SDS011;40776;52.880;6.016;2023-04-25T04:11:11;7.18;;;2.47;;
54883;SDS011;40776;52.880;6.016;2023-04-25T04:13:37;11.50;;;2.63;;
54883;SDS011;40776;52.880;6.016;2023-04-25T04:16:04;7.00;;;2.13;;
54883;SDS011;40776;52.880;6.016;2023-04-25T04:18:30;9.60;;;1.73;;
54883;SDS011;40776;52.880;6.016;2023-04-25T04:20:56;7.40;;;1.77;;
54883;SDS011;40776;52.880;6.016;2023-04-25T04:23:23;5.50;;;1.50;;
54883;SDS011;40776;52.880;6.016;2023-04-25T04:25:49;9.93;;;2.17;;
54883;SDS011;40776;52.880;6.016;2023-04-25T04:28:15;9.98;;;2.00;;
54883;SDS011;40776;52.880;6.016;2023-04-25T04:30:41;7.65;;;1.45;;
54883;SDS011;40776;52.880;6.016;2023-04-25T04:33:10;8.45;;;2.35;;
54883;SDS011;40776;52.880;6.016;2023-04-25T04:35:37;10.80;;;1.95;;
54883;SDS011;40776;52.880;6.016;2023-04-25T04:38:03;8.90;;;1.85;;
54883;SDS011;40776;52.880;6.016;2023-04-25T04:40:29;12.60;;;1.83;;
54883;SDS011;40776;52.880;6.016;2023-04-25T04:42:56;11.00;;;1.92;;
54883;SDS011;40776;52.880;6.016;2023-04-25T04:45:22;12.85;;;2.00;;
54883;SDS011;40776;52.880;6.016;2023-04-25T04:47:48;8.02;;;2.17;;
54883;SDS011;40776;52.880;6.016;2023-04-25T04:50:15;12.02;;;2.05;;
54883;SDS011;40776;52.880;6.016;2023-04-25T04:52:41;13.07;;;2.53;;
54883;SDS011;40776;52.880;6.016;2023-04-25T04:55:07;6.70;;;1.55;;
54883;SDS011;40776;52.880;6.016;2023-04-25T04:57:34;9.30;;;2.13;;
54883;SDS011;40776;52.880;6.016;2023-04-25T05:00:00;13.30;;;2.30;;
54883;SDS011;40776;52.880;6.016;2023-04-25T05:02:29;10.15;;;1.88;;
54883;SDS011;40776;52.880;6.016;2023-04-25T05:04:56;6.97;;;1.27;;
54883;SDS011;40776;52.880;6.016;2023-04-25T05:07:22;14.55;;;2.55;;
54883;SDS011;40776;52.880;6.016;2023-04-25T05:09:48;9.57;;;1.55;;
54883;SDS011;40776;52.880;6.016;2023-04-25T05:12:17;11.88;;;1.45;;
54883;SDS011;40776;52.880;6.016;2023-04-25T05:14:52;7.35;;;1.63;;
54883;SDS011;40776;52.880;6.016;2023-04-25T05:17:18;8.82;;;1.63;;
54883;SDS011;40776;52.880;6.016;2023-04-25T05:19:44;6.40;;;1.33;;
54883;SDS011;40776;52.880;6.016;2023-04-25T05:22:10;3.67;;;1.10;;
54883;SDS011;40776;52.880;6.016;2023-04-25T05:24:36;9.10;;;1.52;;
54883;SDS011;40776;52.880;6.016;2023-04-25T05:27:02;7.22;;;1.30;;
54883;SDS011;40776;52.880;6.016;2023-04-25T05:29:28;5.55;;;1.33;;
54883;SDS011;40776;52.880;6.016;2023-04-25T05:31:54;7.43;;;1.52;;
54883;SDS011;40776;52.880;6.016;2023-04-25T05:34:20;5.63;;;1.20;;
54883;SDS011;40776;52.880;6.016;2023-04-25T05:36:46;6.75;;;1.25;;
54883;SDS011;40776;52.880;6.016;2023-04-25T05:39:14;8.13;;;2.08;;
54883;SDS011;40776;52.880;6.016;2023-04-25T05:41:41;7.78;;;1.25;;
54883;SDS011;40776;52.880;6.016;2023-04-25T05:44:07;9.35;;;1.40;;
54883;SDS011;40776;52.880;6.016;2023-04-25T05:46:33;10.10;;;1.40;;
54883;SDS011;40776;52.880;6.016;2023-04-25T05:48:59;6.57;;;1.10;;
54883;SDS011;40776;52.880;6.016;2023-04-25T05:51:25;4.22;;;1.00;;
54883;SDS011;40776;52.880;6.016;2023-04-25T05:53:52;9.43;;;1.33;;
54883;SDS011;40776;52.880;6.016;2023-04-25T05:56:18;9.10;;;1.60;;
54883;SDS011;40776;52.880;6.016;2023-04-25T05:58:44;5.55;;;2.05;;
54883;SDS011;40776;52.880;6.016;2023-04-25T06:01:11;7.75;;;1.02;;
54883;SDS011;40776;52.880;6.016;2023-04-25T06:03:37;8.80;;;1.48;;
54883;SDS011;40776;52.880;6.016;2023-04-25T06:06:03;8.90;;;1.73;;
54883;SDS011;40776;52.880;6.016;2023-04-25T06:08:29;6.95;;;1.13;;
54883;SDS011;40776;52.880;6.016;2023-04-25T06:10:55;7.25;;;1.65;;
54883;SDS011;40776;52.880;6.016;2023-04-25T06:13:21;18.67;;;3.78;;
54883;SDS011;40776;52.880;6.016;2023-04-25T06:15:47;6.65;;;1.23;;
54883;SDS011;40776;52.880;6.016;2023-04-25T06:18:13;7.18;;;1.63;;
54883;SDS011;40776;52.880;6.016;2023-04-25T06:20:39;9.77;;;1.52;;
54883;SDS011;40776;52.880;6.016;2023-04-25T06:23:05;8.55;;;1.63;;
54883;SDS011;40776;52.880;6.016;2023-04-25T06:25:31;8.60;;;1.25;;
54883;SDS011;40776;52.880;6.016;2023-04-25T06:27:57;6.35;;;1.20;;
54883;SDS011;40776;52.880;6.016;2023-04-25T06:30:23;5.05;;;1.55;;
54883;SDS011;40776;52.880;6.016;2023-04-25T06:32:51;7.10;;;1.52;;
54883;SDS011;40776;52.880;6.016;2023-04-25T06:35:18;7.63;;;1.65;;
54883;SDS011;40776;52.880;6.016;2023-04-25T06:37:44;9.38;;;1.05;;
54883;SDS011;40776;52.880;6.016;2023-04-25T06:40:10;6.30;;;1.60;;
54883;SDS011;40776;52.880;6.016;2023-04-25T06:42:36;16.55;;;2.25;;
54883;SDS011;40776;52.880;6.016;2023-04-25T06:45:02;9.55;;;1.25;;
54883;SDS011;40776;52.880;6.016;2023-04-25T06:47:28;6.10;;;1.27;;
54883;SDS011;40776;52.880;6.016;2023-04-25T06:49:55;5.35;;;1.20;;
54883;SDS011;40776;52.880;6.016;2023-04-25T06:52:21;11.48;;;1.25;;
54883;SDS011;40776;52.880;6.016;2023-04-25T06:54:47;6.50;;;1.20;;
54883;SDS011;40776;52.880;6.016;2023-04-25T06:57:13;9.10;;;1.50;;
54883;SDS011;40776;52.880;6.016;2023-04-25T06:59:39;8.82;;;1.80;;
54883;SDS011;40776;52.880;6.016;2023-04-25T07:02:05;9.55;;;1.23;;
54883;SDS011;40776;52.880;6.016;2023-04-25T07:04:31;8.52;;;1.25;;
54883;SDS011;40776;52.880;6.016;2023-04-25T07:06:57;8.02;;;1.17;;
54883;SDS011;40776;52.880;6.016;2023-04-25T07:09:25;7.93;;;1.40;;
54883;SDS011;40776;52.880;6.016;2023-04-25T07:11:51;8.98;;;1.30;;
54883;SDS011;40776;52.880;6.016;2023-04-25T07:14:17;7.72;;;1.95;;
54883;SDS011;40776;52.880;6.016;2023-04-25T07:16:43;7.82;;;1.10;;
54883;SDS011;40776;52.880;6.016;2023-04-25T07:19:09;9.57;;;1.30;;
54883;SDS011;40776;52.880;6.016;2023-04-25T07:21:35;10.52;;;2.78;;
54883;SDS011;40776;52.880;6.016;2023-04-25T07:24:02;9.30;;;1.90;;
54883;SDS011;40776;52.880;6.016;2023-04-25T07:26:28;9.68;;;1.73;;
54883;SDS011;40776;52.880;6.016;2023-04-25T07:28:54;9.68;;;1.80;;
54883;SDS011;40776;52.880;6.016;2023-04-25T07:31:20;8.77;;;1.83;;
54883;SDS011;40776;52.880;6.016;2023-04-25T07:33:47;7.90;;;1.42;;
54883;SDS011;40776;52.880;6.016;2023-04-25T07:36:13;5.25;;;1.42;;
54883;SDS011;40776;52.880;6.016;2023-04-25T07:38:40;6.00;;;1.02;;
54883;SDS011;40776;52.880;6.016;2023-04-25T07:41:06;4.75;;;0.88;;
54883;SDS011;40776;52.880;6.016;2023-04-25T07:43:32;2.90;;;0.52;;
54883;SDS011;40776;52.880;6.016;2023-04-25T07:45:58;3.13;;;0.70;;
54883;SDS011;40776;52.880;6.016;2023-04-25T07:48:24;2.10;;;0.60;;
54883;SDS011;40776;52.880;6.016;2023-04-25T07:50:50;3.92;;;0.90;;
54883;SDS011;40776;52.880;6.016;2023-04-25T07:53:16;3.20;;;0.70;;
54883;SDS011;40776;52.880;6.016;2023-04-25T07:55:43;2.13;;;0.77;;
54883;SDS011;40776;52.880;6.016;2023-04-25T07:58:09;4.00;;;0.88;;
54883;SDS011;40776;52.880;6.016;2023-04-25T08:00:36;3.75;;;0.93;;
54883;SDS011;40776;52.880;6.016;2023-04-25T08:03:02;6.82;;;2.10;;
54883;SDS011;40776;52.880;6.016;2023-04-25T08:05:29;6.65;;;1.10;;
54883;SDS011;40776;52.880;6.016;2023-04-25T08:07:55;3.90;;;0.73;;
54883;SDS011;40776;52.880;6.016;2023-04-25T08:10:22;5.47;;;0.90;;
54883;SDS011;40776;52.880;6.016;2023-04-25T08:12:48;6.38;;;1.10;;
54883;SDS011;40776;52.880;6.016;2023-04-25T08:15:14;9.55;;;1.10;;
54883;SDS011;40776;52.880;6.016;2023-04-25T08:17:40;6.80;;;1.95;;
54883;SDS011;40776;52.880;6.016;2023-04-25T08:20:06;8.68;;;1.30;;
54883;SDS011;40776;52.880;6.016;2023-04-25T08:22:33;8.35;;;1.25;;
54883;SDS011;40776;52.880;6.016;2023-04-25T08:25:02;4.20;;;1.30;;
54883;SDS011;40776;52.880;6.016;2023-04-25T08:27:28;6.40;;;1.20;;
54883;SDS011;40776;52.880;6.016;2023-04-25T08:29:55;3.95;;;1.00;;
54883;SDS011;40776;52.880;6.016;2023-04-25T08:32:21;4.47;;;0.82;;
54883;SDS011;40776;52.880;6.016;2023-04-25T08:34:47;5.95;;;1.02;;
54883;SDS011;40776;52.880;6.016;2023-04-25T08:37:13;6.40;;;0.73;;
54883;SDS011;40776;52.880;6.016;2023-04-25T08:39:39;6.70;;;1.08;;
54883;SDS011;40776;52.880;6.016;2023-04-25T08:42:07;1.88;;;0.50;;
54883;SDS011;40776;52.880;6.016;2023-04-25T08:44:33;6.07;;;0.95;;
54883;SDS011;40776;52.880;6.016;2023-04-25T08:47:01;7.25;;;1.13;;
54883;SDS011;40776;52.880;6.016;2023-04-25T08:49:28;8.30;;;1.70;;
54883;SDS011;40776;52.880;6.016;2023-04-25T08:51:55;8.25;;;1.50;;
54883;SDS011;40776;52.880;6.016;2023-04-25T08:54:21;8.73;;;1.48;;
54883;SDS011;40776;52.880;6.016;2023-04-25T08:56:51;3.40;;;0.75;;
54883;SDS011;40776;52.880;6.016;2023-04-25T08:59:17;5.63;;;0.90;;
54883;SDS011;40776;52.880;6.016;2023-04-25T09:01:43;10.02;;;1.60;;
54883;SDS011;40776;52.880;6.016;2023-04-25T09:06:47;4.40;;;1.02;;
54883;SDS011;40776;52.880;6.016;2023-04-25T09:09:13;6.03;;;0.85;;
54883;SDS011;40776;52.880;6.016;2023-04-25T09:11:40;8.88;;;1.20;;
54883;SDS011;40776;52.880;6.016;2023-04-25T09:14:13;4.57;;;1.25;;
54883;SDS011;40776;52.880;6.016;2023-04-25T09:17:21;6.82;;;1.00;;
54883;SDS011;40776;52.880;6.016;2023-04-25T09:21:55;5.90;;;1.13;;
54883;SDS011;40776;52.880;6.016;2023-04-25T09:24:35;6.25;;;0.93;;
54883;SDS011;40776;52.880;6.016;2023-04-25T09:27:05;7.60;;;1.05;;
54883;SDS011;40776;52.880;6.016;2023-04-25T09:29:32;4.82;;;1.05;;
54883;SDS011;40776;52.880;6.016;2023-04-25T09:34:41;11.70;;;1.88;;
54883;SDS011;40776;52.880;6.016;2023-04-25T09:37:11;7.85;;;0.90;;
54883;SDS011;40776;52.880;6.016;2023-04-25T09:39:37;8.65;;;1.42;;
54883;SDS011;40776;52.880;6.016;2023-04-25T09:42:04;4.35;;;0.77;;
54883;SDS011;40776;52.880;6.016;2023-04-25T09:44:30;4.30;;;0.88;;
54883;SDS011;40776;52.880;6.016;2023-04-25T09:46:56;5.18;;;1.05;;
54883;SDS011;40776;52.880;6.016;2023-04-25T09:49:22;4.43;;;1.10;;
54883;SDS011;40776;52.880;6.016;2023-04-25T09:51:58;6.72;;;1.33;;
54883;SDS011;40776;52.880;6.016;2023-04-25T09:54:24;14.57;;;2.47;;
54883;SDS011;40776;52.880;6.016;2023-04-25T09:56:51;6.93;;;1.23;;
54883;SDS011;40776;52.880;6.016;2023-04-25T09:59:21;2.10;;;0.63;;
54883;SDS011;40776;52.880;6.016;2023-04-25T10:01:50;6.97;;;1.13;;
54883;SDS011;40776;52.880;6.016;2023-04-25T10:04:20;5.93;;;1.77;;
54883;SDS011;40776;52.880;6.016;2023-04-25T10:06:51;3.92;;;0.70;;
54883;SDS011;40776;52.880;6.016;2023-04-25T10:09:21;8.23;;;1.55;;
54883;SDS011;40776;52.880;6.016;2023-04-25T10:11:49;3.35;;;0.90;;
54883;SDS011;40776;52.880;6.016;2023-04-25T10:14:16;8.00;;;0.80;;
54883;SDS011;40776;52.880;6.016;2023-04-25T10:16:42;7.00;;;1.23;;
54883;SDS011;40776;52.880;6.016;2023-04-25T10:19:09;5.57;;;0.98;;
54883;SDS011;40776;52.880;6.016;2023-04-25T10:21:36;5.35;;;1.42;;
54883;SDS011;40776;52.880;6.016;2023-04-25T10:24:06;4.00;;;1.05;;
54883;SDS011;40776;52.880;6.016;2023-04-25T10:26:32;2.33;;;0.73;;
54883;SDS011;40776;52.880;6.016;2023-04-25T10:28:59;4.18;;;0.93;;
54883;SDS011;40776;52.880;6.016;2023-04-25T10:31:26;7.20;;;0.90;;
54883;SDS011;40776;52.880;6.016;2023-04-25T10:33:53;6.15;;;1.45;;
54883;SDS011;40776;52.880;6.016;2023-04-25T10:36:22;6.72;;;1.55;;
54883;SDS011;40776;52.880;6.016;2023-04-25T10:38:49;5.30;;;1.00;;
54883;SDS011;40776;52.880;6.016;2023-04-25T10:41:17;3.58;;;1.13;;
54883;SDS011;40776;52.880;6.016;2023-04-25T10:43:44;8.68;;;1.20;;
54883;SDS011;40776;52.880;6.016;2023-04-25T10:46:17;7.15;;;0.82;;
54883;SDS011;40776;52.880;6.016;2023-04-25T10:48:48;6.63;;;1.27;;
54883;SDS011;40776;52.880;6.016;2023-04-25T10:51:32;5.43;;;1.10;;
54883;SDS011;40776;52.880;6.016;2023-04-25T10:56:25;11.30;;;1.15;;
54883;SDS011;40776;52.880;6.016;2023-04-25T10:59:02;5.35;;;0.93;;
54883;SDS011;40776;52.880;6.016;2023-04-25T11:01:28;9.05;;;1.55;;
54883;SDS011;40776;52.880;6.016;2023-04-25T11:04:00;8.98;;;1.08;;
54883;SDS011;40776;52.880;6.016;2023-04-25T11:06:45;2.50;;;0.60;;
54883;SDS011;40776;52.880;6.016;2023-04-25T11:09:12;7.05;;;1.20;;
54883;SDS011;40776;52.880;6.016;2023-04-25T11:11:39;7.07;;;1.00;;
54883;SDS011;40776;52.880;6.016;2023-04-25T11:14:05;4.80;;;0.70;;
54883;SDS011;40776;52.880;6.016;2023-04-25T11:16:31;7.03;;;1.27;;
54883;SDS011;40776;52.880;6.016;2023-04-25T11:18:57;5.50;;;0.98;;
54883;SDS011;40776;52.880;6.016;2023-04-25T11:21:26;8.57;;;0.95;;
54883;SDS011;40776;52.880;6.016;2023-04-25T11:23:53;6.47;;;1.83;;
54883;SDS011;40776;52.880;6.016;2023-04-25T11:26:19;6.20;;;1.10;;
54883;SDS011;40776;52.880;6.016;2023-04-25T11:28:45;4.18;;;1.20;;
54883;SDS011;40776;52.880;6.016;2023-04-25T11:31:12;4.57;;;1.20;;
54883;SDS011;40776;52.880;6.016;2023-04-25T11:33:38;6.40;;;0.90;;
54883;SDS011;40776;52.880;6.016;2023-04-25T11:36:05;6.47;;;1.30;;
54883;SDS011;40776;52.880;6.016;2023-04-25T11:38:32;8.55;;;1.70;;
54883;SDS011;40776;52.880;6.016;2023-04-25T11:40:58;7.20;;;1.35;;
54883;SDS011;40776;52.880;6.016;2023-04-25T11:43:25;8.27;;;1.13;;
54883;SDS011;40776;52.880;6.016;2023-04-25T11:45:51;8.05;;;1.25;;
54883;SDS011;40776;52.880;6.016;2023-04-25T11:48:18;8.65;;;1.80;;
54883;SDS011;40776;52.880;6.016;2023-04-25T11:50:45;5.13;;;0.70;;
54883;SDS011;40776;52.880;6.016;2023-04-25T11:53:11;5.18;;;2.60;;
54883;SDS011;40776;52.880;6.016;2023-04-25T11:55:37;1.92;;;0.70;;
54883;SDS011;40776;52.880;6.016;2023-04-25T11:58:05;1.73;;;0.63;;
54883;SDS011;40776;52.880;6.016;2023-04-25T12:00:32;3.92;;;1.05;;
54883;SDS011;40776;52.880;6.016;2023-04-25T12:02:58;5.82;;;1.13;;
54883;SDS011;40776;52.880;6.016;2023-04-25T12:05:31;7.43;;;1.67;;
54883;SDS011;40776;52.880;6.016;2023-04-25T12:08:09;5.38;;;0.93;;
54883;SDS011;40776;52.880;6.016;2023-04-25T12:10:37;4.75;;;1.00;;
54883;SDS011;40776;52.880;6.016;2023-04-25T12:13:17;4.07;;;1.00;;
54883;SDS011;40776;52.880;6.016;2023-04-25T12:15:43;6.47;;;1.10;;
54883;SDS011;40776;52.880;6.016;2023-04-25T12:18:09;5.28;;;1.27;;
54883;SDS011;40776;52.880;6.016;2023-04-25T12:20:35;5.80;;;0.95;;
54883;SDS011;40776;52.880;6.016;2023-04-25T12:23:01;8.45;;;1.80;;
54883;SDS011;40776;52.880;6.016;2023-04-25T12:25:38;10.10;;;1.20;;
54883;SDS011;40776;52.880;6.016;2023-04-25T12:33:20;2.25;;;0.82;;
54883;SDS011;40776;52.880;6.016;2023-04-25T12:35:46;8.02;;;1.27;;
54883;SDS011;40776;52.880;6.016;2023-04-25T12:38:35;6.22;;;1.40;;
54883;SDS011;40776;52.880;6.016;2023-04-25T12:40:59;9.48;;;1.15;;
54883;SDS011;40776;52.880;6.016;2023-04-25T12:43:25;6.03;;;0.80;;
54883;SDS011;40776;52.880;6.016;2023-04-25T12:45:52;5.15;;;1.10;;
54883;SDS011;40776;52.880;6.016;2023-04-25T12:48:18;8.10;;;1.00;;
54883;SDS011;40776;52.880;6.016;2023-04-25T12:50:45;6.20;;;1.17;;
54883;SDS011;40776;52.880;6.016;2023-04-25T12:53:14;3.42;;;0.63;;
54883;SDS011;40776;52.880;6.016;2023-04-25T12:55:40;4.40;;;1.23;;
54883;SDS011;40776;52.880;6.016;2023-04-25T12:58:06;4.18;;;1.05;;
54883;SDS011;40776;52.880;6.016;2023-04-25T13:00:32;2.55;;;1.05;;
54883;SDS011;40776;52.880;6.016;2023-04-25T13:02:58;12.93;;;1.17;;
54883;SDS011;40776;52.880;6.016;2023-04-25T13:05:25;3.75;;;0.68;;
54883;SDS011;40776;52.880;6.016;2023-04-25T13:07:51;5.93;;;1.23;;
54883;SDS011;40776;52.880;6.016;2023-04-25T13:10:17;4.75;;;0.90;;
54883;SDS011;40776;52.880;6.016;2023-04-25T13:12:43;4.90;;;0.93;;
54883;SDS011;40776;52.880;6.016;2023-04-25T13:15:11;5.10;;;1.15;;
54883;SDS011;40776;52.880;6.016;2023-04-25T13:17:37;4.88;;;1.10;;
54883;SDS011;40776;52.880;6.016;2023-04-25T13:20:04;6.55;;;1.00;;
54883;SDS011;40776;52.880;6.016;2023-04-25T13:22:33;3.70;;;1.00;;
54883;SDS011;40776;52.880;6.016;2023-04-25T13:25:01;2.88;;;1.00;;
54883;SDS011;40776;52.880;6.016;2023-04-25T13:27:27;5.15;;;0.80;;
54883;SDS011;40776;52.880;6.016;2023-04-25T13:29:53;3.83;;;0.93;;
54883;SDS011;40776;52.880;6.016;2023-04-25T13:32:20;6.07;;;1.20;;
54883;SDS011;40776;52.880;6.016;2023-04-25T13:34:46;8.95;;;1.08;;
54883;SDS011;40776;52.880;6.016;2023-04-25T13:37:12;12.75;;;1.23;;
54883;SDS011;40776;52.880;6.016;2023-04-25T13:39:38;4.50;;;0.90;;
54883;SDS011;40776;52.880;6.016;2023-04-25T13:42:04;4.22;;;0.88;;
54883;SDS011;40776;52.880;6.016;2023-04-25T13:44:30;4.03;;;1.00;;
54883;SDS011;40776;52.880;6.016;2023-04-25T13:46:56;6.10;;;1.17;;
54883;SDS011;40776;52.880;6.016;2023-04-25T13:49:22;5.63;;;0.90;;
54883;SDS011;40776;52.880;6.016;2023-04-25T13:51:48;5.13;;;1.13;;
54883;SDS011;40776;52.880;6.016;2023-04-25T13:54:14;14.13;;;1.38;;
54883;SDS011;40776;52.880;6.016;2023-04-25T13:56:40;8.80;;;1.20;;
54883;SDS011;40776;52.880;6.016;2023-04-25T13:59:07;10.98;;;1.70;;
54883;SDS011;40776;52.880;6.016;2023-04-25T14:01:33;7.10;;;1.50;;
54883;SDS011;40776;52.880;6.016;2023-04-25T14:04:00;8.60;;;1.48;;
54883;SDS011;40776;52.880;6.016;2023-04-25T14:06:26;8.25;;;1.27;;
54883;SDS011;40776;52.880;6.016;2023-04-25T14:08:53;5.35;;;1.65;;
54883;SDS011;40776;52.880;6.016;2023-04-25T14:11:19;7.32;;;1.10;;
54883;SDS011;40776;52.880;6.016;2023-04-25T14:13:45;7.55;;;1.33;;
54883;SDS011;40776;52.880;6.016;2023-04-25T14:16:12;5.95;;;1.40;;
54883;SDS011;40776;52.880;6.016;2023-04-25T14:18:39;6.13;;;1.35;;
54883;SDS011;40776;52.880;6.016;2023-04-25T14:21:05;4.05;;;1.08;;
54883;SDS011;40776;52.880;6.016;2023-04-25T14:23:31;4.88;;;2.42;;
54883;SDS011;40776;52.880;6.016;2023-04-25T14:25:57;8.07;;;1.70;;
54883;SDS011;40776;52.880;6.016;2023-04-25T14:28:23;3.15;;;0.95;;
54883;SDS011;40776;52.880;6.016;2023-04-25T14:30:49;9.15;;;2.10;;
54883;SDS011;40776;52.880;6.016;2023-04-25T14:33:15;4.78;;;1.10;;
54883;SDS011;40776;52.880;6.016;2023-04-25T14:35:41;7.15;;;1.50;;
54883;SDS011;40776;52.880;6.016;2023-04-25T14:38:07;3.30;;;0.95;;
54883;SDS011;40776;52.880;6.016;2023-04-25T14:40:33;5.70;;;1.00;;
54883;SDS011;40776;52.880;6.016;2023-04-25T14:42:59;6.07;;;0.98;;
54883;SDS011;40776;52.880;6.016;2023-04-25T14:45:27;7.22;;;0.90;;
54883;SDS011;40776;52.880;6.016;2023-04-25T14:47:53;6.53;;;1.75;;
54883;SDS011;40776;52.880;6.016;2023-04-25T14:50:19;7.05;;;1.88;;
54883;SDS011;40776;52.880;6.016;2023-04-25T14:52:46;5.57;;;2.17;;
54883;SDS011;40776;52.880;6.016;2023-04-25T14:55:12;7.15;;;1.35;;
54883;SDS011;40776;52.880;6.016;2023-04-25T14:57:38;7.65;;;1.58;;